sensor_id;sensor_type;location;lat;lon;timestamp;pressure;altitude;pressure_sealevel;temperature;humidity
79453;BME280;68899;52.116;5.404;2024-03-23T00:53:53;101113.03;;;7.72;88.02
79453;BME280;68899;52.116;5.404;2024-03-23T00:56:19;101113.09;;;7.70;88.27
79453;BME280;68899;52.116;5.404;2024-03-23T00:58:45;101103.53;;;7.69;87.94
79453;BME280;68899;52.116;5.404;2024-03-23T01:01:10;101107.94;;;7.69;88.05
79453;BME280;68899;52.116;5.404;2024-03-23T01:03:35;101114.88;;;7.70;88.26
79453;BME280;68899;52.116;5.404;2024-03-23T01:06:02;101107.84;;;7.70;88.24
79453;BME280;68899;52.116;5.404;2024-03-23T01:08:28;101116.56;;;7.71;88.45
79453;BME280;68899;52.116;5.404;2024-03-23T01:11:01;101104.53;;;7.67;88.28
79453;BME280;68899;52.116;5.404;2024-03-23T01:13:27;101102.84;;;7.65;88.42
79453;BME280;68899;52.116;5.404;2024-03-23T01:15:55;101098.38;;;7.68;88.45
79453;BME280;68899;52.116;5.404;2024-03-23T01:18:22;101094.06;;;7.67;88.19
79453;BME280;68899;52.116;5.404;2024-03-23T01:20:48;101091.38;;;7.68;88.23
79453;BME280;68899;52.116;5.404;2024-03-23T01:23:14;101086.28;;;7.65;88.49
79453;BME280;68899;52.116;5.404;2024-03-23T01:25:40;101089.78;;;7.64;88.43
79453;BME280;68899;52.116;5.404;2024-03-23T01:28:06;101074.97;;;7.64;88.57
79453;BME280;68899;52.116;5.404;2024-03-23T01:30:32;101081.91;;;7.65;88.49
79453;BME280;68899;52.116;5.404;2024-03-23T01:32:58;101072.19;;;7.68;88.41
79453;BME280;68899;52.116;5.404;2024-03-23T01:35:23;101071.34;;;7.67;88.64
79453;BME280;68899;52.116;5.404;2024-03-23T01:37:49;101068.72;;;7.67;88.60
79453;BME280;68899;52.116;5.404;2024-03-23T01:40:16;101062.66;;;7.67;88.20
79453;BME280;68899;52.116;5.404;2024-03-23T01:42:42;101060.09;;;7.65;87.70
79453;BME280;68899;52.116;5.404;2024-03-23T01:45:08;101057.53;;;7.63;88.18
79453;BME280;68899;52.116;5.404;2024-03-23T01:47:35;101045.44;;;7.61;87.64
79453;BME280;68899;52.116;5.404;2024-03-23T01:50:01;101049.06;;;7.58;87.23
79453;BME280;68899;52.116;5.404;2024-03-23T01:52:26;101055.34;;;7.54;87.44
79453;BME280;68899;52.116;5.404;2024-03-23T01:54:53;101045.84;;;7.52;86.83
79453;BME280;68899;52.116;5.404;2024-03-23T01:57:19;101047.78;;;7.48;86.92
79453;BME280;68899;52.116;5.404;2024-03-23T01:59:46;101048.75;;;7.46;86.61
79453;BME280;68899;52.116;5.404;2024-03-23T02:02:12;101035.03;;;7.41;86.52
79453;BME280;68899;52.116;5.404;2024-03-23T02:04:38;101043.06;;;7.36;86.02
79453;BME280;68899;52.116;5.404;2024-03-23T02:07:05;101033.75;;;7.30;85.56
79453;BME280;68899;52.116;5.404;2024-03-23T02:09:31;101039.03;;;7.29;86.06
79453;BME280;68899;52.116;5.404;2024-03-23T02:11:58;101042.66;;;7.26;85.12
79453;BME280;68899;52.116;5.404;2024-03-23T02:14:24;101042.72;;;7.25;85.69
79453;BME280;68899;52.116;5.404;2024-03-23T02:16:49;101042.91;;;7.20;85.60
79453;BME280;68899;52.116;5.404;2024-03-23T02:19:15;101043.06;;;7.17;85.16
79453;BME280;68899;52.116;5.404;2024-03-23T02:21:40;101038.75;;;7.16;85.21
79453;BME280;68899;52.116;5.404;2024-03-23T02:24:06;101043.28;;;7.13;85.16
79453;BME280;68899;52.116;5.404;2024-03-23T02:26:31;101036.38;;;7.10;84.95
79453;BME280;68899;52.116;5.404;2024-03-23T02:28:57;101030.47;;;7.06;85.29
79453;BME280;68899;52.116;5.404;2024-03-23T02:31:22;101037.56;;;7.03;85.39
79453;BME280;68899;52.116;5.404;2024-03-23T02:33:48;101019.41;;;7.00;85.58
79453;BME280;68899;52.116;5.404;2024-03-23T02:36:13;101015.94;;;6.99;85.81
79453;BME280;68899;52.116;5.404;2024-03-23T02:38:39;101020.47;;;6.96;85.71
79453;BME280;68899;52.116;5.404;2024-03-23T02:41:05;101017.84;;;6.96;85.77
79453;BME280;68899;52.116;5.404;2024-03-23T02:43:31;101023.19;;;6.93;86.04
79453;BME280;68899;52.116;5.404;2024-03-23T02:45:57;101025.03;;;6.91;85.98
79453;BME280;68899;52.116;5.404;2024-03-23T02:48:22;101019.09;;;6.87;85.71
79453;BME280;68899;52.116;5.404;2024-03-23T02:50:48;101018.28;;;6.85;85.39
79453;BME280;68899;52.116;5.404;2024-03-23T02:53:14;101021.91;;;6.83;84.93
79453;BME280;68899;52.116;5.404;2024-03-23T02:55:39;101020.28;;;6.80;84.91
79453;BME280;68899;52.116;5.404;2024-03-23T02:58:05;101020.38;;;6.77;84.34
79453;BME280;68899;52.116;5.404;2024-03-23T03:00:31;101019.69;;;6.73;84.61
79453;BME280;68899;52.116;5.404;2024-03-23T03:02:56;101015.38;;;6.72;84.66
79453;BME280;68899;52.116;5.404;2024-03-23T03:05:22;101014.59;;;6.70;84.51
79453;BME280;68899;52.116;5.404;2024-03-23T03:07:47;101016.47;;;6.67;83.62
79453;BME280;68899;52.116;5.404;2024-03-23T03:10:13;101015.78;;;6.63;84.64
79453;BME280;68899;52.116;5.404;2024-03-23T03:12:38;101021.97;;;6.61;84.05
79453;BME280;68899;52.116;5.404;2024-03-23T03:15:04;101012.38;;;6.61;83.97
79453;BME280;68899;52.116;5.404;2024-03-23T03:17:30;101015.16;;;6.57;83.16
79453;BME280;68899;52.116;5.404;2024-03-23T03:19:56;101017.06;;;6.53;83.91
79453;BME280;68899;52.116;5.404;2024-03-23T03:22:24;101021.50;;;6.51;83.78
79453;BME280;68899;52.116;5.404;2024-03-23T03:24:50;101022.47;;;6.48;83.73
79453;BME280;68899;52.116;5.404;2024-03-23T03:27:15;101020.78;;;6.47;83.82
79453;BME280;68899;52.116;5.404;2024-03-23T03:29:41;101014.78;;;6.45;83.48
79453;BME280;68899;52.116;5.404;2024-03-23T03:32:06;101011.50;;;6.40;83.43
79453;BME280;68899;52.116;5.404;2024-03-23T03:34:32;101008.16;;;6.37;82.71
79453;BME280;68899;52.116;5.404;2024-03-23T03:36:58;101004.78;;;6.35;82.88
79453;BME280;68899;52.116;5.404;2024-03-23T03:39:24;101007.44;;;6.33;82.60
79453;BME280;68899;52.116;5.404;2024-03-23T03:41:50;101005.03;;;6.29;83.38
79453;BME280;68899;52.116;5.404;2024-03-23T03:44:16;101005.94;;;6.28;83.31
79453;BME280;68899;52.116;5.404;2024-03-23T03:46:42;101002.59;;;6.24;83.20
79453;BME280;68899;52.116;5.404;2024-03-23T03:49:08;100993.13;;;6.21;82.75
79453;BME280;68899;52.116;5.404;2024-03-23T03:51:33;100997.50;;;6.21;82.54
79453;BME280;68899;52.116;5.404;2024-03-23T03:53:59;100985.59;;;6.14;83.07
79453;BME280;68899;52.116;5.404;2024-03-23T03:56:24;100988.34;;;6.11;82.55
79453;BME280;68899;52.116;5.404;2024-03-23T03:58:50;100984.19;;;6.05;82.34
79453;BME280;68899;52.116;5.404;2024-03-23T04:01:15;100983.56;;;6.00;82.38
79453;BME280;68899;52.116;5.404;2024-03-23T04:03:43;100988.09;;;5.95;82.45
79453;BME280;68899;52.116;5.404;2024-03-23T04:06:11;100986.47;;;5.92;82.21
79453;BME280;68899;52.116;5.404;2024-03-23T04:08:37;100986.53;;;5.89;82.34
79453;BME280;68899;52.116;5.404;2024-03-23T04:11:02;100982.31;;;5.87;82.45
79453;BME280;68899;52.116;5.404;2024-03-23T04:13:28;100980.59;;;5.86;82.48
79453;BME280;68899;52.116;5.404;2024-03-23T04:15:54;100980.66;;;5.84;82.58
79453;BME280;68899;52.116;5.404;2024-03-23T04:18:20;100979.00;;;5.82;82.42
79453;BME280;68899;52.116;5.404;2024-03-23T04:20:47;100967.00;;;5.78;82.16
79453;BME280;68899;52.116;5.404;2024-03-23T04:23:13;100967.00;;;5.78;82.53
79453;BME280;68899;52.116;5.404;2024-03-23T04:25:38;100976.59;;;5.77;82.17
79453;BME280;68899;52.116;5.404;2024-03-23T04:28:05;100967.91;;;5.77;82.33
79453;BME280;68899;52.116;5.404;2024-03-23T04:30:30;100974.16;;;5.73;82.32
79453;BME280;68899;52.116;5.404;2024-03-23T04:32:57;100968.22;;;5.69;81.94
79453;BME280;68899;52.116;5.404;2024-03-23T04:35:24;100971.81;;;5.66;81.97
79453;BME280;68899;52.116;5.404;2024-03-23T04:37:54;100971.88;;;5.65;81.88
79453;BME280;68899;52.116;5.404;2024-03-23T04:40:21;100967.53;;;5.64;82.26
79453;BME280;68899;52.116;5.404;2024-03-23T04:42:46;100970.22;;;5.62;82.12
79453;BME280;68899;52.116;5.404;2024-03-23T04:45:12;100973.66;;;5.63;82.05
79453;BME280;68899;52.116;5.404;2024-03-23T04:47:38;100976.28;;;5.63;82.34
79453;BME280;68899;52.116;5.404;2024-03-23T04:50:04;100976.28;;;5.63;82.38
79453;BME280;68899;52.116;5.404;2024-03-23T04:52:30;100970.28;;;5.61;82.55
79453;BME280;68899;52.116;5.404;2024-03-23T04:54:56;100970.28;;;5.61;82.45
79453;BME280;68899;52.116;5.404;2024-03-23T04:57:22;100968.59;;;5.60;82.66
79453;BME280;68899;52.116;5.404;2024-03-23T04:59:48;100967.78;;;5.58;82.53
79453;BME280;68899;52.116;5.404;2024-03-23T05:02:14;100962.69;;;5.55;82.30
79453;BME280;68899;52.116;5.404;2024-03-23T05:04:39;100965.47;;;5.50;82.71
79453;BME280;68899;52.116;5.404;2024-03-23T05:07:06;100974.28;;;5.48;82.30
79453;BME280;68899;52.116;5.404;2024-03-23T05:09:31;100975.16;;;5.47;82.13
79453;BME280;68899;52.116;5.404;2024-03-23T05:12:01;100967.47;;;5.44;82.01
79453;BME280;68899;52.116;5.404;2024-03-23T05:14:27;100966.63;;;5.43;82.35
79453;BME280;68899;52.116;5.404;2024-03-23T05:16:53;100966.75;;;5.40;82.44
79453;BME280;68899;52.116;5.404;2024-03-23T05:19:18;100968.53;;;5.38;82.41
79453;BME280;68899;52.116;5.404;2024-03-23T05:21:44;100970.44;;;5.34;81.80
79453;BME280;68899;52.116;5.404;2024-03-23T05:24:10;100969.50;;;5.35;81.96
79453;BME280;68899;52.116;5.404;2024-03-23T05:26:35;100968.72;;;5.33;82.52
79453;BME280;68899;52.116;5.404;2024-03-23T05:29:02;100976.56;;;5.33;82.18
79453;BME280;68899;52.116;5.404;2024-03-23T05:31:30;100974.91;;;5.31;81.75
79453;BME280;68899;52.116;5.404;2024-03-23T05:33:56;100977.63;;;5.28;82.02
79453;BME280;68899;52.116;5.404;2024-03-23T05:36:22;100977.63;;;5.28;81.86
79453;BME280;68899;52.116;5.404;2024-03-23T05:38:49;100979.38;;;5.27;81.92
79453;BME280;68899;52.116;5.404;2024-03-23T05:41:14;100982.91;;;5.26;82.11
79453;BME280;68899;52.116;5.404;2024-03-23T05:43:40;100975.06;;;5.26;82.09
79453;BME280;68899;52.116;5.404;2024-03-23T05:46:05;100978.53;;;5.27;82.39
79453;BME280;68899;52.116;5.404;2024-03-23T05:48:31;100978.38;;;5.31;82.48
79453;BME280;68899;52.116;5.404;2024-03-23T05:50:57;100983.53;;;5.33;82.98
79453;BME280;68899;52.116;5.404;2024-03-23T05:53:23;100968.53;;;5.38;83.05
79453;BME280;68899;52.116;5.404;2024-03-23T05:55:49;100964.06;;;5.42;83.49
79453;BME280;68899;52.116;5.404;2024-03-23T05:58:18;100969.28;;;5.42;83.51
79453;BME280;68899;52.116;5.404;2024-03-23T06:00:44;100957.16;;;5.41;83.42
79453;BME280;68899;52.116;5.404;2024-03-23T06:03:10;100962.38;;;5.41;83.97
79453;BME280;68899;52.116;5.404;2024-03-23T06:05:39;100967.47;;;5.44;84.05
79453;BME280;68899;52.116;5.404;2024-03-23T06:08:05;100967.41;;;5.45;83.92
79453;BME280;68899;52.116;5.404;2024-03-23T06:10:31;100969.22;;;5.43;83.75
79453;BME280;68899;52.116;5.404;2024-03-23T06:12:59;100967.47;;;5.44;83.63
79453;BME280;68899;52.116;5.404;2024-03-23T06:15:25;100968.50;;;5.39;84.14
79453;BME280;68899;52.116;5.404;2024-03-23T06:17:52;100968.53;;;5.38;84.02
79453;BME280;68899;52.116;5.404;2024-03-23T06:20:18;100971.22;;;5.36;83.75
79453;BME280;68899;52.116;5.404;2024-03-23T06:22:43;100971.22;;;5.36;83.81
79453;BME280;68899;52.116;5.404;2024-03-23T06:25:09;100966.78;;;5.38;83.82
79453;BME280;68899;52.116;5.404;2024-03-23T06:27:34;100972.91;;;5.37;83.85
79453;BME280;68899;52.116;5.404;2024-03-23T06:30:00;100965.94;;;5.38;83.80
79453;BME280;68899;52.116;5.404;2024-03-23T06:32:27;100953.69;;;5.40;83.80
79453;BME280;68899;52.116;5.404;2024-03-23T06:34:56;100957.81;;;5.46;83.77
79453;BME280;68899;52.116;5.404;2024-03-23T06:37:22;100955.69;;;5.55;83.81
79453;BME280;68899;52.116;5.404;2024-03-23T06:39:47;100958.13;;;5.60;83.58
79453;BME280;68899;52.116;5.404;2024-03-23T06:42:13;100951.00;;;5.65;83.95
79453;BME280;68899;52.116;5.404;2024-03-23T06:44:39;100955.41;;;5.63;84.04
79453;BME280;68899;52.116;5.404;2024-03-23T06:47:05;100948.38;;;5.65;83.81
79453;BME280;68899;52.116;5.404;2024-03-23T06:49:30;100946.56;;;5.67;84.08
79453;BME280;68899;52.116;5.404;2024-03-23T06:51:56;100941.19;;;5.70;84.25
79453;BME280;68899;52.116;5.404;2024-03-23T06:54:21;100948.03;;;5.74;84.09
79453;BME280;68899;52.116;5.404;2024-03-23T06:56:47;100958.25;;;5.79;84.13
79453;BME280;68899;52.116;5.404;2024-03-23T06:59:12;100953.78;;;5.82;84.58
79453;BME280;68899;52.116;5.404;2024-03-23T07:01:38;100954.38;;;5.89;84.58
79453;BME280;68899;52.116;5.404;2024-03-23T07:04:04;100957.75;;;5.92;84.61
79453;BME280;68899;52.116;5.404;2024-03-23T07:06:30;100958.47;;;5.96;84.50
79453;BME280;68899;52.116;5.404;2024-03-23T07:08:56;100958.41;;;5.98;84.62
79453;BME280;68899;52.116;5.404;2024-03-23T07:11:22;100954.75;;;6.02;84.48
79453;BME280;68899;52.116;5.404;2024-03-23T07:13:52;100954.56;;;6.06;84.26
79453;BME280;68899;52.116;5.404;2024-03-23T07:16:18;100951.84;;;6.09;84.04
79453;BME280;68899;52.116;5.404;2024-03-23T07:18:44;100950.66;;;6.16;83.93
79453;BME280;68899;52.116;5.404;2024-03-23T07:21:10;100947.88;;;6.21;83.86
79453;BME280;68899;52.116;5.404;2024-03-23T07:23:35;100948.53;;;6.26;84.43
79453;BME280;68899;52.116;5.404;2024-03-23T07:26:02;100952.63;;;6.32;83.84
79453;BME280;68899;52.116;5.404;2024-03-23T07:28:28;100954.22;;;6.36;84.10
79453;BME280;68899;52.116;5.404;2024-03-23T07:33:27;100957.16;;;6.48;83.92
79453;BME280;68899;52.116;5.404;2024-03-23T07:35:53;100958.50;;;6.57;83.77
79453;BME280;68899;52.116;5.404;2024-03-23T07:38:19;100955.06;;;6.57;83.84
79453;BME280;68899;52.116;5.404;2024-03-23T07:40:44;100955.19;;;6.54;83.71
79453;BME280;68899;52.116;5.404;2024-03-23T07:43:10;100956.56;;;6.62;83.61
79453;BME280;68899;52.116;5.404;2024-03-23T07:45:35;100958.13;;;6.66;83.58
79453;BME280;68899;52.116;5.404;2024-03-23T07:48:03;100956.94;;;6.73;83.71
79453;BME280;68899;52.116;5.404;2024-03-23T07:50:29;100959.38;;;6.78;83.40
79453;BME280;68899;52.116;5.404;2024-03-23T07:52:54;100951.53;;;6.78;81.61
79453;BME280;68899;52.116;5.404;2024-03-23T07:55:20;100957.22;;;6.86;81.85
79453;BME280;68899;52.116;5.404;2024-03-23T07:57:46;100960.44;;;6.93;81.64
79453;BME280;68899;52.116;5.404;2024-03-23T08:00:13;100952.00;;;6.86;81.06
79453;BME280;68899;52.116;5.404;2024-03-23T08:02:38;100958.38;;;6.80;81.10
79453;BME280;68899;52.116;5.404;2024-03-23T08:05:04;100954.69;;;6.85;81.23
79453;BME280;68899;52.116;5.404;2024-03-23T08:07:30;100952.81;;;6.88;80.34
79453;BME280;68899;52.116;5.404;2024-03-23T08:09:55;100957.03;;;6.91;80.34
79453;BME280;68899;52.116;5.404;2024-03-23T08:12:21;100946.38;;;6.95;80.00
79453;BME280;68899;52.116;5.404;2024-03-23T08:14:46;100954.59;;;7.06;80.42
79453;BME280;68899;52.116;5.404;2024-03-23T08:17:12;100945.91;;;7.06;79.49
79453;BME280;68899;52.116;5.404;2024-03-23T08:19:37;100944.41;;;7.19;78.16
79453;BME280;68899;52.116;5.404;2024-03-23T08:22:03;100957.28;;;7.24;79.27
79453;BME280;68899;52.116;5.404;2024-03-23T08:24:28;100944.56;;;7.16;78.11
79453;BME280;68899;52.116;5.404;2024-03-23T08:26:55;100949.94;;;7.13;78.09
79453;BME280;68899;52.116;5.404;2024-03-23T08:29:21;100954.31;;;7.31;77.27
79453;BME280;68899;52.116;5.404;2024-03-23T08:31:46;100953.75;;;7.44;78.36
79453;BME280;68899;52.116;5.404;2024-03-23T08:34:12;100950.06;;;7.48;78.25
79453;BME280;68899;52.116;5.404;2024-03-23T08:36:37;100959.88;;;7.61;78.11
79453;BME280;68899;52.116;5.404;2024-03-23T08:39:03;100959.88;;;7.61;77.69
79453;BME280;68899;52.116;5.404;2024-03-23T08:41:29;100960.16;;;7.55;76.56
79453;BME280;68899;52.116;5.404;2024-03-23T08:43:55;100945.94;;;7.61;76.60
79453;BME280;68899;52.116;5.404;2024-03-23T08:46:21;100950.63;;;7.54;76.24
79453;BME280;68899;52.116;5.404;2024-03-23T08:48:47;100956.97;;;7.68;76.50
79453;BME280;68899;52.116;5.404;2024-03-23T08:51:15;100949.25;;;7.83;75.95
79453;BME280;68899;52.116;5.404;2024-03-23T08:53:41;100948.56;;;7.97;75.46
79453;BME280;68899;52.116;5.404;2024-03-23T08:56:08;100949.03;;;8.05;75.04
79453;BME280;68899;52.116;5.404;2024-03-23T08:58:35;100941.56;;;8.15;73.76
79453;BME280;68899;52.116;5.404;2024-03-23T09:03:31;100935.97;;;8.40;71.50
79453;BME280;68899;52.116;5.404;2024-03-23T09:05:58;100929.00;;;8.56;73.02
79453;BME280;68899;52.116;5.404;2024-03-23T09:08:24;100931.16;;;8.65;72.85
79453;BME280;68899;52.116;5.404;2024-03-23T09:10:50;100933.56;;;8.70;71.74
79453;BME280;68899;52.116;5.404;2024-03-23T09:13:15;100929.50;;;8.80;72.47
79453;BME280;68899;52.116;5.404;2024-03-23T09:15:51;100943.44;;;8.98;72.75
79453;BME280;68899;52.116;5.404;2024-03-23T09:18:17;100943.78;;;8.74;70.93
79453;BME280;68899;52.116;5.404;2024-03-23T09:20:43;100945.84;;;8.35;71.70
79453;BME280;68899;52.116;5.404;2024-03-23T09:23:09;100944.31;;;7.94;72.44
79453;BME280;68899;52.116;5.404;2024-03-23T09:25:38;100940.50;;;7.65;73.32
79453;BME280;68899;52.116;5.404;2024-03-23T09:28:05;100943.28;;;7.44;74.08
79453;BME280;68899;52.116;5.404;2024-03-23T09:30:32;100940.31;;;7.32;75.38
79453;BME280;68899;52.116;5.404;2024-03-23T09:32:58;100939.75;;;7.26;75.32
79453;BME280;68899;52.116;5.404;2024-03-23T09:35:24;100934.59;;;7.24;76.74
79453;BME280;68899;52.116;5.404;2024-03-23T09:37:49;100941.59;;;7.24;77.45
79453;BME280;68899;52.116;5.404;2024-03-23T09:40:15;100936.19;;;7.46;77.94
79453;BME280;68899;52.116;5.404;2024-03-23T09:42:41;100948.06;;;7.53;76.54
79453;BME280;68899;52.116;5.404;2024-03-23T09:45:17;100952.19;;;7.40;77.13
79453;BME280;68899;52.116;5.404;2024-03-23T09:47:45;100966.06;;;7.23;77.21
79453;BME280;68899;52.116;5.404;2024-03-23T09:50:12;100951.53;;;6.97;76.61
79453;BME280;68899;52.116;5.404;2024-03-23T09:52:38;100940.13;;;6.79;76.90
79453;BME280;68899;52.116;5.404;2024-03-23T09:55:04;100938.19;;;6.64;77.35
79453;BME280;68899;52.116;5.404;2024-03-23T09:57:29;100938.75;;;6.51;77.39
79453;BME280;68899;52.116;5.404;2024-03-23T09:59:55;100931.91;;;6.68;78.90
79453;BME280;68899;52.116;5.404;2024-03-23T10:02:22;100932.06;;;7.04;79.03
79453;BME280;68899;52.116;5.404;2024-03-23T10:04:48;100927.94;;;7.36;79.20
79453;BME280;68899;52.116;5.404;2024-03-23T10:07:15;100932.78;;;7.62;78.60
79453;BME280;68899;52.116;5.404;2024-03-23T10:09:42;100926.72;;;7.79;79.73
79453;BME280;68899;52.116;5.404;2024-03-23T10:12:09;100916.50;;;7.92;77.01
79453;BME280;68899;52.116;5.404;2024-03-23T10:14:36;100913.06;;;8.09;77.04
79453;BME280;68899;52.116;5.404;2024-03-23T10:17:19;100913.91;;;8.27;75.46
79453;BME280;68899;52.116;5.404;2024-03-23T10:19:47;100908.72;;;8.42;75.07
79453;BME280;68899;52.116;5.404;2024-03-23T10:22:17;100908.34;;;8.50;72.42
79453;BME280;68899;52.116;5.404;2024-03-23T10:24:43;100927.31;;;8.20;72.14
79453;BME280;68899;52.116;5.404;2024-03-23T10:27:09;100927.28;;;7.86;72.45
79453;BME280;68899;52.116;5.404;2024-03-23T10:29:34;100928.38;;;7.82;73.59
79453;BME280;68899;52.116;5.404;2024-03-23T10:32:20;100922.06;;;8.03;73.97
79453;BME280;68899;52.116;5.404;2024-03-23T10:34:46;100916.75;;;8.22;73.64
79453;BME280;68899;52.116;5.404;2024-03-23T10:37:12;100908.59;;;8.45;74.44
79453;BME280;68899;52.116;5.404;2024-03-23T10:39:39;100913.72;;;8.64;73.17
79453;BME280;68899;52.116;5.404;2024-03-23T10:42:09;100917.09;;;8.66;69.99
79453;BME280;68899;52.116;5.404;2024-03-23T10:44:38;100907.75;;;8.45;71.40
79453;BME280;68899;52.116;5.404;2024-03-23T10:47:05;100915.28;;;8.51;70.26
79453;BME280;68899;52.116;5.404;2024-03-23T10:49:35;100916.59;;;8.42;71.54
79453;BME280;68899;52.116;5.404;2024-03-23T10:52:03;100929.84;;;8.22;70.89
79453;BME280;68899;52.116;5.404;2024-03-23T10:54:30;100953.19;;;7.92;72.01
79453;BME280;68899;52.116;5.404;2024-03-23T10:57:20;100952.25;;;7.57;72.43
79453;BME280;68899;52.116;5.404;2024-03-23T10:59:45;100941.78;;;7.38;73.00
79453;BME280;68899;52.116;5.404;2024-03-23T11:02:21;100941.25;;;7.31;73.86
79453;BME280;68899;52.116;5.404;2024-03-23T11:04:47;100933.31;;;7.33;73.78
79453;BME280;68899;52.116;5.404;2024-03-23T11:07:31;100926.69;;;7.62;74.38
79453;BME280;68899;52.116;5.404;2024-03-23T11:09:59;100929.38;;;7.97;74.83
79453;BME280;68899;52.116;5.404;2024-03-23T11:12:30;100915.59;;;8.28;73.26
79453;BME280;68899;52.116;5.404;2024-03-23T11:15:05;100912.91;;;8.46;71.13
79453;BME280;68899;52.116;5.404;2024-03-23T11:17:31;100907.63;;;8.64;72.28
79453;BME280;68899;52.116;5.404;2024-03-23T11:20:01;100898.31;;;8.91;72.47
79453;BME280;68899;52.116;5.404;2024-03-23T11:22:48;100913.09;;;8.92;72.47
79453;BME280;68899;52.116;5.404;2024-03-23T11:25:18;100909.59;;;8.60;71.71
79453;BME280;68899;52.116;5.404;2024-03-23T11:27:44;100910.03;;;8.34;71.13
79453;BME280;68899;52.116;5.404;2024-03-23T11:30:19;100914.66;;;8.29;72.08
79453;BME280;68899;52.116;5.404;2024-03-23T11:32:46;100906.09;;;8.60;73.35
79453;BME280;68899;52.116;5.404;2024-03-23T11:40:31;100903.66;;;9.05;69.18
79453;BME280;68899;52.116;5.404;2024-03-23T11:43:02;100901.09;;;9.20;68.39
79453;BME280;68899;52.116;5.404;2024-03-23T11:45:29;100894.25;;;9.33;66.62
79453;BME280;68899;52.116;5.404;2024-03-23T11:50:28;100891.22;;;9.41;66.04
79453;BME280;68899;52.116;5.404;2024-03-23T11:53:06;100893.00;;;9.40;66.14
79453;BME280;68899;52.116;5.404;2024-03-23T11:55:42;100884.09;;;9.43;64.29
79453;BME280;68899;52.116;5.404;2024-03-23T11:58:08;100886.97;;;9.38;66.21
79453;BME280;68899;52.116;5.404;2024-03-23T12:00:34;100885.69;;;9.29;65.20
79453;BME280;68899;52.116;5.404;2024-03-23T12:03:01;100888.16;;;9.48;64.37
79453;BME280;68899;52.116;5.404;2024-03-23T12:05:27;100870.00;;;9.59;64.75
79453;BME280;68899;52.116;5.404;2024-03-23T12:07:53;100883.66;;;9.66;63.43
79453;BME280;68899;52.116;5.404;2024-03-23T12:10:21;100882.31;;;9.59;64.74
79453;BME280;68899;52.116;5.404;2024-03-23T12:12:59;100891.66;;;9.33;65.08
79453;BME280;68899;52.116;5.404;2024-03-23T12:15:25;100885.44;;;9.02;63.21
79453;BME280;68899;52.116;5.404;2024-03-23T12:17:52;100872.88;;;8.76;62.93
79453;BME280;68899;52.116;5.404;2024-03-23T12:20:17;100874.97;;;8.54;63.83
79453;BME280;68899;52.116;5.404;2024-03-23T12:22:43;100868.69;;;8.56;64.75
79453;BME280;68899;52.116;5.404;2024-03-23T12:25:11;100867.56;;;8.77;64.89
79453;BME280;68899;52.116;5.404;2024-03-23T12:27:36;100863.03;;;8.97;65.26
79453;BME280;68899;52.116;5.404;2024-03-23T12:30:02;100857.00;;;9.26;64.94
79453;BME280;68899;52.116;5.404;2024-03-23T12:32:28;100851.50;;;9.15;63.09
79453;BME280;68899;52.116;5.404;2024-03-23T12:34:53;100859.72;;;9.25;64.71
79453;BME280;68899;52.116;5.404;2024-03-23T12:37:19;100859.28;;;9.17;62.09
79453;BME280;68899;52.116;5.404;2024-03-23T12:39:44;100853.78;;;8.90;62.14
79453;BME280;68899;52.116;5.404;2024-03-23T12:42:11;100847.22;;;8.65;62.52
79453;BME280;68899;52.116;5.404;2024-03-23T12:44:36;100854.97;;;8.51;63.27
79453;BME280;68899;52.116;5.404;2024-03-23T12:47:02;100851.59;;;8.49;63.75
79453;BME280;68899;52.116;5.404;2024-03-23T12:49:27;100852.34;;;8.51;64.10
79453;BME280;68899;52.116;5.404;2024-03-23T12:51:56;100864.38;;;8.55;63.70
79453;BME280;68899;52.116;5.404;2024-03-23T12:54:22;100850.59;;;8.52;62.31
79453;BME280;68899;52.116;5.404;2024-03-23T12:56:48;100859.50;;;8.65;63.55
79453;BME280;68899;52.116;5.404;2024-03-23T12:59:14;100850.50;;;8.86;64.81
79453;BME280;68899;52.116;5.404;2024-03-23T13:01:40;100855.41;;;9.08;63.18
79453;BME280;68899;52.116;5.404;2024-03-23T13:04:05;100852.59;;;9.27;63.96
79453;BME280;68899;52.116;5.404;2024-03-23T13:06:31;100843.97;;;9.41;62.56
79453;BME280;68899;52.116;5.404;2024-03-23T13:09:03;100849.22;;;9.41;62.73
79453;BME280;68899;52.116;5.404;2024-03-23T13:11:30;100853.53;;;9.26;62.81
79453;BME280;68899;52.116;5.404;2024-03-23T13:13:55;100847.94;;;9.00;61.26
79453;BME280;68899;52.116;5.404;2024-03-23T13:16:21;100846.16;;;8.85;61.44
79453;BME280;68899;52.116;5.404;2024-03-23T13:18:46;100845.22;;;9.02;62.61
79453;BME280;68899;52.116;5.404;2024-03-23T13:21:12;100853.69;;;8.91;60.95
79453;BME280;68899;52.116;5.404;2024-03-23T13:23:38;100859.31;;;8.68;60.26
79453;BME280;68899;52.116;5.404;2024-03-23T13:26:06;100879.00;;;8.43;61.68
79453;BME280;68899;52.116;5.404;2024-03-23T13:28:33;100900.72;;;8.11;62.50
79453;BME280;68899;52.116;5.404;2024-03-23T13:30:58;100911.13;;;7.95;64.21
79453;BME280;68899;52.116;5.404;2024-03-23T13:33:29;100890.69;;;7.84;65.15
79453;BME280;68899;52.116;5.404;2024-03-23T13:35:55;100880.50;;;7.78;66.49
79453;BME280;68899;52.116;5.404;2024-03-23T13:38:21;100871.81;;;7.95;67.21
79453;BME280;68899;52.116;5.404;2024-03-23T13:40:54;100875.59;;;8.07;66.40
79453;BME280;68899;52.116;5.404;2024-03-23T13:43:20;100874.53;;;8.11;65.47
79453;BME280;68899;52.116;5.404;2024-03-23T13:45:53;100863.19;;;8.28;66.21
79453;BME280;68899;52.116;5.404;2024-03-23T13:48:23;100857.75;;;8.48;65.57
79453;BME280;68899;52.116;5.404;2024-03-23T13:51:02;100847.97;;;8.52;64.55
79453;BME280;68899;52.116;5.404;2024-03-23T13:53:29;100855.31;;;8.45;64.80
79453;BME280;68899;52.116;5.404;2024-03-23T13:55:55;100867.13;;;8.36;64.55
79453;BME280;68899;52.116;5.404;2024-03-23T13:58:21;100847.28;;;8.31;65.10
79453;BME280;68899;52.116;5.404;2024-03-23T14:00:47;100850.16;;;8.26;64.32
79453;BME280;68899;52.116;5.404;2024-03-23T14:03:13;100845.81;;;8.25;65.44